Aviation Digital Data Service (ADDS)

Output produced by METARs form (0746 UTC 18 February 2019)
found at http://www.aviationweather.gov/metar/data/
 
METAR text: TXKF 180655Z 24002KT 9999 FEW020 SCT300 16/15 Q1019
Conditions at: TXKF (BERMUDA NAS , BM) observed 0655 UTC 18 February 2019
Temperature: 16.0°C (61°F)
Dewpoint: 15.0°C (59°F) [RH = 94%]
Pressure (altimeter): 30.09 inches Hg (1019.0 mb)
Winds: from the WSW (240 degrees) at 2 MPH (2 knots; 1.0 m/s)
Visibility: 6 or more miles (10+ km)
Ceiling: at least 12,000 feet AGL
Clouds: few clouds at 2000 feet AGL
scattered clouds at 30000 feet AGL
Weather: no significant weather observed at this time

METAR text: TXKF 180555Z 31002KT 9999 FEW020 SCT300 17/15 Q1019
Conditions at: TXKF (BERMUDA NAS , BM) observed 0555 UTC 18 February 2019
Temperature: 17.0°C (63°F)
Dewpoint: 15.0°C (59°F) [RH = 88%]
Pressure (altimeter): 30.09 inches Hg (1019.0 mb)
Winds: from the NW (310 degrees) at 2 MPH (2 knots; 1.0 m/s)
Visibility: 6 or more miles (10+ km)
Ceiling: at least 12,000 feet AGL
Clouds: few clouds at 2000 feet AGL
scattered clouds at 30000 feet AGL
Weather: no significant weather observed at this time

METAR text: TXKF 180455Z 32004KT 9999 FEW020 FEW300 19/15 Q1020
Conditions at: TXKF (BERMUDA NAS , BM) observed 0455 UTC 18 February 2019
Temperature: 19.0°C (66°F)
Dewpoint: 15.0°C (59°F) [RH = 78%]
Pressure (altimeter): 30.12 inches Hg (1020.0 mb)
Winds: from the NW (320 degrees) at 5 MPH (4 knots; 2.1 m/s)
Visibility: 6 or more miles (10+ km)
Ceiling: at least 12,000 feet AGL
Clouds: few clouds at 2000 feet AGL
few clouds at 30000 feet AGL
Weather: no significant weather observed at this time

METAR text: TXKF 180355Z 34005KT 9999 FEW020 FEW300 19/16 Q1020
Conditions at: TXKF (BERMUDA NAS , BM) observed 0355 UTC 18 February 2019
Temperature: 19.0°C (66°F)
Dewpoint: 16.0°C (61°F) [RH = 83%]
Pressure (altimeter): 30.12 inches Hg (1020.0 mb)
Winds: from the NNW (340 degrees) at 6 MPH (5 knots; 2.6 m/s)
Visibility: 6 or more miles (10+ km)
Ceiling: at least 12,000 feet AGL
Clouds: few clouds at 2000 feet AGL
few clouds at 30000 feet AGL
Weather: no significant weather observed at this time

METAR text: TXKF 180255Z 33007KT 9999 FEW019 SCT300 19/15 Q1020
Conditions at: TXKF (BERMUDA NAS , BM) observed 0255 UTC 18 February 2019
Temperature: 19.0°C (66°F)
Dewpoint: 15.0°C (59°F) [RH = 78%]
Pressure (altimeter): 30.12 inches Hg (1020.0 mb)
Winds: from the NNW (330 degrees) at 8 MPH (7 knots; 3.6 m/s)
Visibility: 6 or more miles (10+ km)
Ceiling: at least 12,000 feet AGL
Clouds: few clouds at 1900 feet AGL
scattered clouds at 30000 feet AGL
Weather: no significant weather observed at this time

METAR text: TXKF 180155Z 31007KT 9999 FEW020 FEW300 19/16 Q1019
Conditions at: TXKF (BERMUDA NAS , BM) observed 0155 UTC 18 February 2019
Temperature: 19.0°C (66°F)
Dewpoint: 16.0°C (61°F) [RH = 83%]
Pressure (altimeter): 30.09 inches Hg (1019.0 mb)
Winds: from the NW (310 degrees) at 8 MPH (7 knots; 3.6 m/s)
Visibility: 6 or more miles (10+ km)
Ceiling: at least 12,000 feet AGL
Clouds: few clouds at 2000 feet AGL
few clouds at 30000 feet AGL
Weather: no significant weather observed at this time

METAR text: TXKF 180055Z 31009KT 9999 SCT018 SCT032 SCT300 20/17 Q1019
Conditions at: TXKF (BERMUDA NAS , BM) observed 0055 UTC 18 February 2019
Temperature: 20.0°C (68°F)
Dewpoint: 17.0°C (63°F) [RH = 83%]
Pressure (altimeter): 30.09 inches Hg (1019.0 mb)
Winds: from the NW (310 degrees) at 10 MPH (9 knots; 4.6 m/s)
Visibility: 6 or more miles (10+ km)
Ceiling: at least 12,000 feet AGL
Clouds: scattered clouds at 1800 feet AGL
scattered clouds at 3200 feet AGL
scattered clouds at 30000 feet AGL
Weather: no significant weather observed at this time

METAR text: TXKF 172355Z 31010KT 9999 SCT015 SCT030 SCT300 20/18 Q1018
Conditions at: TXKF (BERMUDA NAS , BM) observed 2355 UTC 17 February 2019
Temperature: 20.0°C (68°F)
Dewpoint: 18.0°C (64°F) [RH = 88%]
Pressure (altimeter): 30.06 inches Hg (1018.0 mb)
Winds: from the NW (310 degrees) at 12 MPH (10 knots; 5.1 m/s)
Visibility: 6 or more miles (10+ km)
Ceiling: at least 12,000 feet AGL
Clouds: scattered clouds at 1500 feet AGL
scattered clouds at 3000 feet AGL
scattered clouds at 30000 feet AGL
Weather: no significant weather observed at this time

METAR text: TXKF 172255Z 29008KT 9999 FEW015 FEW300 20/18 Q1017
Conditions at: TXKF (BERMUDA NAS , BM) observed 2255 UTC 17 February 2019
Temperature: 20.0°C (68°F)
Dewpoint: 18.0°C (64°F) [RH = 88%]
Pressure (altimeter): 30.03 inches Hg (1017.0 mb)
Winds: from the WNW (290 degrees) at 9 MPH (8 knots; 4.1 m/s)
Visibility: 6 or more miles (10+ km)
Ceiling: at least 12,000 feet AGL
Clouds: few clouds at 1500 feet AGL
few clouds at 30000 feet AGL
Weather: no significant weather observed at this time

METAR text: TXKF 172155Z 28013KT 9999 FEW011 FEW300 20/18 Q1016
Conditions at: TXKF (BERMUDA NAS , BM) observed 2155 UTC 17 February 2019
Temperature: 20.0°C (68°F)
Dewpoint: 18.0°C (64°F) [RH = 88%]
Pressure (altimeter): 30.00 inches Hg (1016.0 mb)
Winds: from the W (280 degrees) at 15 MPH (13 knots; 6.7 m/s)
Visibility: 6 or more miles (10+ km)
Ceiling: at least 12,000 feet AGL
Clouds: few clouds at 1100 feet AGL
few clouds at 30000 feet AGL
Weather: no significant weather observed at this time

METAR text: TXKF 172128Z 27013KT 9999 SCT011 21/19 Q1016
Conditions at: TXKF (BERMUDA NAS , BM) observed 2128 UTC 17 February 2019
Temperature: 21.0°C (70°F)
Dewpoint: 19.0°C (66°F) [RH = 88%]
Pressure (altimeter): 30.00 inches Hg (1016.0 mb)
Winds: from the W (270 degrees) at 15 MPH (13 knots; 6.7 m/s)
Visibility: 6 or more miles (10+ km)
Ceiling: at least 12,000 feet AGL
Clouds: scattered clouds at 1100 feet AGL
Weather: no significant weather observed at this time

METAR text: TXKF 172055Z 26016KT 9999 BKN011 21/19 Q1016
Conditions at: TXKF (BERMUDA NAS , BM) observed 2055 UTC 17 February 2019
Temperature: 21.0°C (70°F)
Dewpoint: 19.0°C (66°F) [RH = 88%]
Pressure (altimeter): 30.00 inches Hg (1016.0 mb)
Winds: from the W (260 degrees) at 18 MPH (16 knots; 8.2 m/s)
Visibility: 6 or more miles (10+ km)
Ceiling: 1100 feet AGL
Clouds: broken clouds at 1100 feet AGL
Weather: no significant weather observed at this time

METAR text: TXKF 172044Z 26016KT 9999 BKN011 21/19 Q1016
Conditions at: TXKF (BERMUDA NAS , BM) observed 2044 UTC 17 February 2019
Temperature: 21.0°C (70°F)
Dewpoint: 19.0°C (66°F) [RH = 88%]
Pressure (altimeter): 30.00 inches Hg (1016.0 mb)
Winds: from the W (260 degrees) at 18 MPH (16 knots; 8.2 m/s)
Visibility: 6 or more miles (10+ km)
Ceiling: 1100 feet AGL
Clouds: broken clouds at 1100 feet AGL
Weather: no significant weather observed at this time

METAR text: TXKF 171955Z 25014KT 9999 FEW010 21/20 Q1015
Conditions at: TXKF (BERMUDA NAS , BM) observed 1955 UTC 17 February 2019
Temperature: 21.0°C (70°F)
Dewpoint: 20.0°C (68°F) [RH = 94%]
Pressure (altimeter): 29.97 inches Hg (1015.0 mb)
Winds: from the WSW (250 degrees) at 16 MPH (14 knots; 7.2 m/s)
Visibility: 6 or more miles (10+ km)
Ceiling: at least 12,000 feet AGL
Clouds: few clouds at 1000 feet AGL
Weather: no significant weather observed at this time

METAR text: TXKF 171922Z 26016KT 9999 BKN010 21/20 Q1015 RMK CIG RGD
Conditions at: TXKF (BERMUDA NAS , BM) observed 1922 UTC 17 February 2019
Temperature: 21.0°C (70°F)
Dewpoint: 20.0°C (68°F) [RH = 94%]
Pressure (altimeter): 29.97 inches Hg (1015.0 mb)
Winds: from the W (260 degrees) at 18 MPH (16 knots; 8.2 m/s)
Visibility: 6 or more miles (10+ km)
Ceiling: 1000 feet AGL
Clouds: broken clouds at 1000 feet AGL
Weather: no significant weather observed at this time

METAR text: TXKF 171855Z 26015KT 9999 SCT009 SCT021 22/19 Q1015
Conditions at: TXKF (BERMUDA NAS , BM) observed 1855 UTC 17 February 2019
Temperature: 22.0°C (72°F)
Dewpoint: 19.0°C (66°F) [RH = 83%]
Pressure (altimeter): 29.97 inches Hg (1015.0 mb)
Winds: from the W (260 degrees) at 17 MPH (15 knots; 7.7 m/s)
Visibility: 6 or more miles (10+ km)
Ceiling: at least 12,000 feet AGL
Clouds: scattered clouds at 900 feet AGL
scattered clouds at 2100 feet AGL
Weather: no significant weather observed at this time

METAR text: TXKF 171831Z 26015KT 9999 SCT009 21/19 Q1015
Conditions at: TXKF (BERMUDA NAS , BM) observed 1831 UTC 17 February 2019
Temperature: 21.0°C (70°F)
Dewpoint: 19.0°C (66°F) [RH = 88%]
Pressure (altimeter): 29.97 inches Hg (1015.0 mb)
Winds: from the W (260 degrees) at 17 MPH (15 knots; 7.7 m/s)
Visibility: 6 or more miles (10+ km)
Ceiling: at least 12,000 feet AGL
Clouds: scattered clouds at 900 feet AGL
Weather: no significant weather observed at this time

METAR text: TXKF 171755Z 26014KT 9999 FEW018 FEW037 21/19 Q1015
Conditions at: TXKF (BERMUDA NAS , BM) observed 1755 UTC 17 February 2019
Temperature: 21.0°C (70°F)
Dewpoint: 19.0°C (66°F) [RH = 88%]
Pressure (altimeter): 29.97 inches Hg (1015.0 mb)
Winds: from the W (260 degrees) at 16 MPH (14 knots; 7.2 m/s)
Visibility: 6 or more miles (10+ km)
Ceiling: at least 12,000 feet AGL
Clouds: few clouds at 1800 feet AGL
few clouds at 3700 feet AGL
Weather: no significant weather observed at this time

METAR text: TXKF 171740Z 26016KT 9999 SCT018 SCT037 21/19 Q1015
Conditions at: TXKF (BERMUDA NAS , BM) observed 1740 UTC 17 February 2019
Temperature: 21.0°C (70°F)
Dewpoint: 19.0°C (66°F) [RH = 88%]
Pressure (altimeter): 29.97 inches Hg (1015.0 mb)
Winds: from the W (260 degrees) at 18 MPH (16 knots; 8.2 m/s)
Visibility: 6 or more miles (10+ km)
Ceiling: at least 12,000 feet AGL
Clouds: scattered clouds at 1800 feet AGL
scattered clouds at 3700 feet AGL
Weather: no significant weather observed at this time

METAR text: TXKF 171720Z 26018KT 9999 BKN018 BKN035 BKN060 21/19 Q1015
Conditions at: TXKF (BERMUDA NAS , BM) observed 1720 UTC 17 February 2019
Temperature: 21.0°C (70°F)
Dewpoint: 19.0°C (66°F) [RH = 88%]
Pressure (altimeter): 29.97 inches Hg (1015.0 mb)
Winds: from the W (260 degrees) at 21 MPH (18 knots; 9.3 m/s)
Visibility: 6 or more miles (10+ km)
Ceiling: 1800 feet AGL
Clouds: broken clouds at 1800 feet AGL
broken clouds at 3500 feet AGL
broken clouds at 6000 feet AGL
Weather: no significant weather observed at this time

METAR text: TXKF 171555Z 25017KT 9999 FEW014 SCT045 BKN070 BKN300 21/18 Q1015
Conditions at: TXKF (BERMUDA NAS , BM) observed 1555 UTC 17 February 2019
Temperature: 21.0°C (70°F)
Dewpoint: 18.0°C (64°F) [RH = 83%]
Pressure (altimeter): 29.97 inches Hg (1015.0 mb)
Winds: from the WSW (250 degrees) at 20 MPH (17 knots; 8.7 m/s)
Visibility: 6 or more miles (10+ km)
Ceiling: 7000 feet AGL
Clouds: few clouds at 1400 feet AGL
scattered clouds at 4500 feet AGL
broken clouds at 7000 feet AGL
broken clouds at 30000 feet AGL
Weather: no significant weather observed at this time

METAR text: TXKF 171355Z 23021KT 9999 FEW015 BKN070 BKN130 BKN300 21/19 Q1015
Conditions at: TXKF (BERMUDA NAS , BM) observed 1355 UTC 17 February 2019
Temperature: 21.0°C (70°F)
Dewpoint: 19.0°C (66°F) [RH = 88%]
Pressure (altimeter): 29.97 inches Hg (1015.0 mb)
Winds: from the SW (230 degrees) at 24 MPH (21 knots; 10.8 m/s)
Visibility: 6 or more miles (10+ km)
Ceiling: 7000 feet AGL
Clouds: few clouds at 1500 feet AGL
broken clouds at 7000 feet AGL
broken clouds at 13000 feet AGL
broken clouds at 30000 feet AGL
Weather: no significant weather observed at this time

METAR text: TXKF 171255Z 24021KT 9999 FEW015 BKN150 BKN300 21/18 Q1015
Conditions at: TXKF (BERMUDA NAS , BM) observed 1255 UTC 17 February 2019
Temperature: 21.0°C (70°F)
Dewpoint: 18.0°C (64°F) [RH = 83%]
Pressure (altimeter): 29.97 inches Hg (1015.0 mb)
Winds: from the WSW (240 degrees) at 24 MPH (21 knots; 10.8 m/s)
Visibility: 6 or more miles (10+ km)
Ceiling: 15000 feet AGL
Clouds: few clouds at 1500 feet AGL
broken clouds at 15000 feet AGL
broken clouds at 30000 feet AGL
Weather: no significant weather observed at this time

METAR text: TXKF 171155Z 23016KT 9999 FEW015 SCT150 BKN300 20/18 Q1014
Conditions at: TXKF (BERMUDA NAS , BM) observed 1155 UTC 17 February 2019
Temperature: 20.0°C (68°F)
Dewpoint: 18.0°C (64°F) [RH = 88%]
Pressure (altimeter): 29.94 inches Hg (1014.0 mb)
Winds: from the SW (230 degrees) at 18 MPH (16 knots; 8.2 m/s)
Visibility: 6 or more miles (10+ km)
Ceiling: 30000 feet AGL
Clouds: few clouds at 1500 feet AGL
scattered clouds at 15000 feet AGL
broken clouds at 30000 feet AGL
Weather: no significant weather observed at this time

METAR text: TXKF 171055Z 24014KT 9999 BKN200 BKN300 20/18 Q1013
Conditions at: TXKF (BERMUDA NAS , BM) observed 1055 UTC 17 February 2019
Temperature: 20.0°C (68°F)
Dewpoint: 18.0°C (64°F) [RH = 88%]
Pressure (altimeter): 29.91 inches Hg (1013.0 mb)
Winds: from the WSW (240 degrees) at 16 MPH (14 knots; 7.2 m/s)
Visibility: 6 or more miles (10+ km)
Ceiling: 20000 feet AGL
Clouds: broken clouds at 20000 feet AGL
broken clouds at 30000 feet AGL
Weather: no significant weather observed at this time

METAR text: TXKF 170955Z 24013KT 9999 FEW013 SCT150 SCT200 BKN300 20/18 Q1013
Conditions at: TXKF (BERMUDA NAS , BM) observed 0955 UTC 17 February 2019
Temperature: 20.0°C (68°F)
Dewpoint: 18.0°C (64°F) [RH = 88%]
Pressure (altimeter): 29.91 inches Hg (1013.0 mb)
Winds: from the WSW (240 degrees) at 15 MPH (13 knots; 6.7 m/s)
Visibility: 6 or more miles (10+ km)
Ceiling: 30000 feet AGL
Clouds: few clouds at 1300 feet AGL
scattered clouds at 15000 feet AGL
scattered clouds at 20000 feet AGL
broken clouds at 30000 feet AGL
Weather: no significant weather observed at this time

METAR text: TXKF 170855Z 24012KT 9999 FEW013 SCT140 BKN180 BKN300 20/17 Q1012
Conditions at: TXKF (BERMUDA NAS , BM) observed 0855 UTC 17 February 2019
Temperature: 20.0°C (68°F)
Dewpoint: 17.0°C (63°F) [RH = 83%]
Pressure (altimeter): 29.88 inches Hg (1012.0 mb)
Winds: from the WSW (240 degrees) at 14 MPH (12 knots; 6.2 m/s)
Visibility: 6 or more miles (10+ km)
Ceiling: 18000 feet AGL
Clouds: few clouds at 1300 feet AGL
scattered clouds at 14000 feet AGL
broken clouds at 18000 feet AGL
broken clouds at 30000 feet AGL
Weather: no significant weather observed at this time

METAR text: TXKF 170755Z 24012KT 9999 FEW009 SCT140 BKN180 20/18 Q1012
Conditions at: TXKF (BERMUDA NAS , BM) observed 0755 UTC 17 February 2019
Temperature: 20.0°C (68°F)
Dewpoint: 18.0°C (64°F) [RH = 88%]
Pressure (altimeter): 29.88 inches Hg (1012.0 mb)
Winds: from the WSW (240 degrees) at 14 MPH (12 knots; 6.2 m/s)
Visibility: 6 or more miles (10+ km)
Ceiling: 18000 feet AGL
Clouds: few clouds at 900 feet AGL
scattered clouds at 14000 feet AGL
broken clouds at 18000 feet AGL
Weather: no significant weather observed at this time

METAR text: TXKF 170655Z 24014KT 9999 FEW009 SCT130 BKN160 20/19 Q1012
Conditions at: TXKF (BERMUDA NAS , BM) observed 0655 UTC 17 February 2019
Temperature: 20.0°C (68°F)
Dewpoint: 19.0°C (66°F) [RH = 94%]
Pressure (altimeter): 29.88 inches Hg (1012.0 mb)
Winds: from the WSW (240 degrees) at 16 MPH (14 knots; 7.2 m/s)
Visibility: 6 or more miles (10+ km)
Ceiling: 16000 feet AGL
Clouds: few clouds at 900 feet AGL
scattered clouds at 13000 feet AGL
broken clouds at 16000 feet AGL
Weather: no significant weather observed at this time

METAR text: TXKF 170555Z 23012KT 9999 FEW009 BKN130 BKN180 20/19 Q1012
Conditions at: TXKF (BERMUDA NAS , BM) observed 0555 UTC 17 February 2019
Temperature: 20.0°C (68°F)
Dewpoint: 19.0°C (66°F) [RH = 94%]
Pressure (altimeter): 29.88 inches Hg (1012.0 mb)
Winds: from the SW (230 degrees) at 14 MPH (12 knots; 6.2 m/s)
Visibility: 6 or more miles (10+ km)
Ceiling: 13000 feet AGL
Clouds: few clouds at 900 feet AGL
broken clouds at 13000 feet AGL
broken clouds at 18000 feet AGL
Weather: no significant weather observed at this time

METAR text: TXKF 170455Z 23012KT 9999 FEW008 BKN130 BKN190 OVC300 20/19 Q1012
Conditions at: TXKF (BERMUDA NAS , BM) observed 0455 UTC 17 February 2019
Temperature: 20.0°C (68°F)
Dewpoint: 19.0°C (66°F) [RH = 94%]
Pressure (altimeter): 29.88 inches Hg (1012.0 mb)
Winds: from the SW (230 degrees) at 14 MPH (12 knots; 6.2 m/s)
Visibility: 6 or more miles (10+ km)
Ceiling: 13000 feet AGL
Clouds: few clouds at 800 feet AGL
broken clouds at 13000 feet AGL
broken clouds at 19000 feet AGL
overcast cloud deck at 30000 feet AGL
Weather: no significant weather observed at this time

METAR text: TXKF 170422Z 22010KT 9999 FEW008 SCT027 BKN130 OVC180 20/19 Q1012
Conditions at: TXKF (BERMUDA NAS , BM) observed 0422 UTC 17 February 2019
Temperature: 20.0°C (68°F)
Dewpoint: 19.0°C (66°F) [RH = 94%]
Pressure (altimeter): 29.88 inches Hg (1012.0 mb)
Winds: from the SW (220 degrees) at 12 MPH (10 knots; 5.1 m/s)
Visibility: 6 or more miles (10+ km)
Ceiling: 13000 feet AGL
Clouds: few clouds at 800 feet AGL
scattered clouds at 2700 feet AGL
broken clouds at 13000 feet AGL
overcast cloud deck at 18000 feet AGL
Weather: no significant weather observed at this time

METAR text: TXKF 170355Z 24011KT 9999 SCT008 BKN026 BKN130 OVC300 20/19 Q1013
Conditions at: TXKF (BERMUDA NAS , BM) observed 0355 UTC 17 February 2019
Temperature: 20.0°C (68°F)
Dewpoint: 19.0°C (66°F) [RH = 94%]
Pressure (altimeter): 29.91 inches Hg (1013.0 mb)
Winds: from the WSW (240 degrees) at 13 MPH (11 knots; 5.7 m/s)
Visibility: 6 or more miles (10+ km)
Ceiling: 2600 feet AGL
Clouds: scattered clouds at 800 feet AGL
broken clouds at 2600 feet AGL
broken clouds at 13000 feet AGL
overcast cloud deck at 30000 feet AGL
Weather: no significant weather observed at this time

METAR text: TXKF 170255Z 24010KT 9999 SCT009 BKN045 OVC140 20/19 Q1012
Conditions at: TXKF (BERMUDA NAS , BM) observed 0255 UTC 17 February 2019
Temperature: 20.0°C (68°F)
Dewpoint: 19.0°C (66°F) [RH = 94%]
Pressure (altimeter): 29.88 inches Hg (1012.0 mb)
Winds: from the WSW (240 degrees) at 12 MPH (10 knots; 5.1 m/s)
Visibility: 6 or more miles (10+ km)
Ceiling: 4500 feet AGL
Clouds: scattered clouds at 900 feet AGL
broken clouds at 4500 feet AGL
overcast cloud deck at 14000 feet AGL
Weather: no significant weather observed at this time

METAR text: TXKF 170155Z 26009KT 9999 FEW009 SCT039 BKN120 OVC170 20/19 Q1012
Conditions at: TXKF (BERMUDA NAS , BM) observed 0155 UTC 17 February 2019
Temperature: 20.0°C (68°F)
Dewpoint: 19.0°C (66°F) [RH = 94%]
Pressure (altimeter): 29.88 inches Hg (1012.0 mb)
Winds: from the W (260 degrees) at 10 MPH (9 knots; 4.6 m/s)
Visibility: 6 or more miles (10+ km)
Ceiling: 12000 feet AGL
Clouds: few clouds at 900 feet AGL
scattered clouds at 3900 feet AGL
broken clouds at 12000 feet AGL
overcast cloud deck at 17000 feet AGL
Weather: no significant weather observed at this time

METAR text: TXKF 170055Z 25013KT 9999 FEW009 SCT036 BKN097 OVC150 20/19 Q1012
Conditions at: TXKF (BERMUDA NAS , BM) observed 0055 UTC 17 February 2019
Temperature: 20.0°C (68°F)
Dewpoint: 19.0°C (66°F) [RH = 94%]
Pressure (altimeter): 29.88 inches Hg (1012.0 mb)
Winds: from the WSW (250 degrees) at 15 MPH (13 knots; 6.7 m/s)
Visibility: 6 or more miles (10+ km)
Ceiling: 9700 feet AGL
Clouds: few clouds at 900 feet AGL
scattered clouds at 3600 feet AGL
broken clouds at 9700 feet AGL
overcast cloud deck at 15000 feet AGL
Weather: no significant weather observed at this time

METAR text: TXKF 162355Z 23011KT 9999 SCT009 BKN130 OVC160 20/19 Q1012
Conditions at: TXKF (BERMUDA NAS , BM) observed 2355 UTC 16 February 2019
Temperature: 20.0°C (68°F)
Dewpoint: 19.0°C (66°F) [RH = 94%]
Pressure (altimeter): 29.88 inches Hg (1012.0 mb)
Winds: from the SW (230 degrees) at 13 MPH (11 knots; 5.7 m/s)
Visibility: 6 or more miles (10+ km)
Ceiling: 13000 feet AGL
Clouds: scattered clouds at 900 feet AGL
broken clouds at 13000 feet AGL
overcast cloud deck at 16000 feet AGL
Weather: no significant weather observed at this time

METAR text: TXKF 162255Z 24012KT 9999 FEW009 SCT076 BKN180 OVC300 20/19 Q1011
Conditions at: TXKF (BERMUDA NAS , BM) observed 2255 UTC 16 February 2019
Temperature: 20.0°C (68°F)
Dewpoint: 19.0°C (66°F) [RH = 94%]
Pressure (altimeter): 29.85 inches Hg (1011.0 mb)
Winds: from the WSW (240 degrees) at 14 MPH (12 knots; 6.2 m/s)
Visibility: 6 or more miles (10+ km)
Ceiling: 18000 feet AGL
Clouds: few clouds at 900 feet AGL
scattered clouds at 7600 feet AGL
broken clouds at 18000 feet AGL
overcast cloud deck at 30000 feet AGL
Weather: no significant weather observed at this time

METAR text: TXKF 162155Z 24014KT 9999 FEW008 SCT020 BKN090 OVC200 21/19 Q1011
Conditions at: TXKF (BERMUDA NAS , BM) observed 2155 UTC 16 February 2019
Temperature: 21.0°C (70°F)
Dewpoint: 19.0°C (66°F) [RH = 88%]
Pressure (altimeter): 29.85 inches Hg (1011.0 mb)
Winds: from the WSW (240 degrees) at 16 MPH (14 knots; 7.2 m/s)
Visibility: 6 or more miles (10+ km)
Ceiling: 9000 feet AGL
Clouds: few clouds at 800 feet AGL
scattered clouds at 2000 feet AGL
broken clouds at 9000 feet AGL
overcast cloud deck at 20000 feet AGL
Weather: no significant weather observed at this time

METAR text: TXKF 162121Z 23016KT 9999 VCSH SCT008 BKN017 BKN080 OVC200 21/20 Q1011
Conditions at: TXKF (BERMUDA NAS , BM) observed 2121 UTC 16 February 2019
Temperature: 21.0°C (70°F)
Dewpoint: 20.0°C (68°F) [RH = 94%]
Pressure (altimeter): 29.85 inches Hg (1011.0 mb)
Winds: from the SW (230 degrees) at 18 MPH (16 knots; 8.2 m/s)
Visibility: 6 or more miles (10+ km)
Ceiling: 1700 feet AGL
Clouds: scattered clouds at 800 feet AGL
broken clouds at 1700 feet AGL
broken clouds at 8000 feet AGL
overcast cloud deck at 20000 feet AGL
Weather: VCSH  (showers in vicinity)

METAR text: TXKF 162055Z 22015KT 9000 -SHRA BKN007 BKN015 BKN042 OVC180 21/20 Q1011
Conditions at: TXKF (BERMUDA NAS , BM) observed 2055 UTC 16 February 2019
Temperature: 21.0°C (70°F)
Dewpoint: 20.0°C (68°F) [RH = 94%]
Pressure (altimeter): 29.85 inches Hg (1011.0 mb)
Winds: from the SW (220 degrees) at 17 MPH (15 knots; 7.7 m/s)
Visibility: 6 miles ( 9 km)
Ceiling: 700 feet AGL
Clouds: broken clouds at 700 feet AGL
broken clouds at 1500 feet AGL
broken clouds at 4200 feet AGL
overcast cloud deck at 18000 feet AGL
Weather: -SHRA  (light rain showers)

METAR text: TXKF 162044Z 22015KT 9999 VCSH BKN007 BKN018 BKN045 OVC180 22/20 Q1011
Conditions at: TXKF (BERMUDA NAS , BM) observed 2044 UTC 16 February 2019
Temperature: 22.0°C (72°F)
Dewpoint: 20.0°C (68°F) [RH = 88%]
Pressure (altimeter): 29.85 inches Hg (1011.0 mb)
Winds: from the SW (220 degrees) at 17 MPH (15 knots; 7.7 m/s)
Visibility: 6 or more miles (10+ km)
Ceiling: 700 feet AGL
Clouds: broken clouds at 700 feet AGL
broken clouds at 1800 feet AGL
broken clouds at 4500 feet AGL
overcast cloud deck at 18000 feet AGL
Weather: VCSH  (showers in vicinity)

METAR text: TXKF 161955Z 22013KT 9999 SCT006 BKN014 BKN042 OVC170 21/20 Q1011
Conditions at: TXKF (BERMUDA NAS , BM) observed 1955 UTC 16 February 2019
Temperature: 21.0°C (70°F)
Dewpoint: 20.0°C (68°F) [RH = 94%]
Pressure (altimeter): 29.85 inches Hg (1011.0 mb)
Winds: from the SW (220 degrees) at 15 MPH (13 knots; 6.7 m/s)
Visibility: 6 or more miles (10+ km)
Ceiling: 1400 feet AGL
Clouds: scattered clouds at 600 feet AGL
broken clouds at 1400 feet AGL
broken clouds at 4200 feet AGL
overcast cloud deck at 17000 feet AGL
Weather: no significant weather observed at this time

Forecast for: TXKF (BERMUDA NAS , BM)
Text: TAF TXKF 180531Z 1806/1906 29005KT 9999 FEW020
Forecast period: 0600 to 1500 UTC 18 February 2019
Forecast type: FROM: standard forecast or significant change
Winds: from the WNW (290 degrees) at 6 MPH (5 knots; 2.6 m/s)
Visibility: 6 or more miles 10+ km)
Ceiling: at least 12,000 feet AGL
Clouds: few clouds at 2000 feet AGL
Weather: no significant weather forecast for this period
Text: BECMG 1815/1818 23015KT
Forecast period: 1500 UTC 18 February 2019 to 0600 UTC 19 February 2019
Forecast type: BECOMING: Conditions expected to become as follows by 1800 UTC 18 February 2019
Winds: from the SW (230 degrees) at 17 MPH (15 knots; 7.7 m/s)
Visibility: 6 or more miles 10+ km)
Ceiling: at least 12,000 feet AGL
Clouds: few clouds at 2000 feet AGL
Weather: no significant weather forecast for this period